createdAt,value
2022-08-17T00:00:43.078Z,31.50
2022-08-17T00:03:23.759Z,31.70
2022-08-17T00:05:58.891Z,31.30
2022-08-17T00:08:36.061Z,31.30
2022-08-17T00:11:13.417Z,31.50
2022-08-17T00:13:50.549Z,32.10
2022-08-17T00:16:57.474Z,32.20
2022-08-17T00:19:29.470Z,32.50
2022-08-17T00:22:34.308Z,31.60
2022-08-17T00:25:01.545Z,31.90
2022-08-17T00:27:37.960Z,32.30
2022-08-17T00:30:15.977Z,33.00
2022-08-17T00:33:14.245Z,33.90
2022-08-17T00:35:46.486Z,33.40
2022-08-17T00:38:20.825Z,33.30
2022-08-17T00:40:59.156Z,33.20
2022-08-17T00:43:39.171Z,33.30
2022-08-17T00:46:15.848Z,33.30
2022-08-17T00:48:49.742Z,33.70
2022-08-17T00:51:30.918Z,34.40
2022-08-17T00:54:11.122Z,34.30
2022-08-17T00:56:57.825Z,33.70
2022-08-17T00:59:38.277Z,32.80
2022-08-17T01:02:17.777Z,32.90
2022-08-17T01:04:54.559Z,32.80
2022-08-17T01:07:29.789Z,32.70
2022-08-17T01:10:05.822Z,33.60
2022-08-17T01:12:45.747Z,33.20
2022-08-17T01:15:21.623Z,33.20
2022-08-17T01:18:06.923Z,33.10
2022-08-17T01:20:48.570Z,32.80
2022-08-17T01:23:27.484Z,32.80
2022-08-17T01:29:02.251Z,33.50
2022-08-17T01:31:54.722Z,33.60
2022-08-17T01:34:42.650Z,33.80
2022-08-17T01:37:18.253Z,33.90
2022-08-17T01:39:57.750Z,34.00
2022-08-17T01:42:38.420Z,33.70
2022-08-17T01:45:20.372Z,33.40
2022-08-17T01:47:54.450Z,33.60
2022-08-17T01:50:31.621Z,34.20
2022-08-17T01:53:08.407Z,34.00
2022-08-17T01:55:48.207Z,34.10
2022-08-17T01:58:22.551Z,33.80
2022-08-17T02:01:00.649Z,34.10
2022-08-17T02:03:36.310Z,34.20
2022-08-17T02:06:27.970Z,34.90
2022-08-17T02:09:03.572Z,34.90
2022-08-17T02:11:41.483Z,34.30
2022-08-17T02:14:15.172Z,34.30
2022-08-17T02:16:54.414Z,34.70
2022-08-17T02:19:28.652Z,34.50
2022-08-17T02:22:04.190Z,34.90
2022-08-17T02:25:00.419Z,34.90
2022-08-17T02:27:35.440Z,35.00
2022-08-17T02:31:00.038Z,35.00
2022-08-17T02:33:10.203Z,35.40
2022-08-17T02:35:45.238Z,35.70
2022-08-17T02:38:19.494Z,36.50
2022-08-17T02:40:53.512Z,37.00
2022-08-17T02:43:28.683Z,36.40
2022-08-17T02:46:02.509Z,37.00
2022-08-17T02:48:36.517Z,36.90
2022-08-17T02:51:13.223Z,36.20
2022-08-17T02:53:48.721Z,36.00
2022-08-17T02:56:22.901Z,36.40
2022-08-17T02:58:59.968Z,37.20
2022-08-17T03:01:34.228Z,36.70
2022-08-17T03:04:08.683Z,37.20
2022-08-17T03:06:42.566Z,37.50
2022-08-17T03:09:22.407Z,37.70
2022-08-17T03:11:56.042Z,38.80
2022-08-17T03:14:36.995Z,39.30
2022-08-17T03:17:17.158Z,38.80
2022-08-17T03:19:54.547Z,38.90
2022-08-17T03:22:38.634Z,39.20
2022-08-17T03:25:14.702Z,39.70
2022-08-17T03:27:52.807Z,39.70
2022-08-17T03:30:29.128Z,39.20
2022-08-17T03:33:04.371Z,38.80
2022-08-17T03:35:43.019Z,39.30
2022-08-17T03:38:18.781Z,38.80
2022-08-17T03:40:57.256Z,39.00
2022-08-17T03:43:36.231Z,39.60
2022-08-17T03:46:34.406Z,40.10
2022-08-17T03:49:26.814Z,40.10
2022-08-17T03:52:17.022Z,39.00
2022-08-17T03:55:07.223Z,38.40
2022-08-17T03:57:41.573Z,38.40
2022-08-17T04:00:16.598Z,38.40
2022-08-17T04:02:53.959Z,39.00
2022-08-17T04:05:27.873Z,39.50
2022-08-17T04:08:02.059Z,39.90
2022-08-17T04:10:41.367Z,39.40
2022-08-17T04:13:24.226Z,39.40
2022-08-17T04:16:01.438Z,38.90
2022-08-17T04:18:39.523Z,38.30
2022-08-17T04:21:14.438Z,38.30
2022-08-17T04:23:50.327Z,38.50
2022-08-17T04:26:52.877Z,38.30
2022-08-17T04:29:18.780Z,38.60
2022-08-17T04:31:53.127Z,38.10
2022-08-17T04:34:28.500Z,38.30
2022-08-17T04:37:09.211Z,38.20
2022-08-17T04:40:04.361Z,38.10
2022-08-17T04:42:37.483Z,38.50
2022-08-17T04:45:12.079Z,38.20
2022-08-17T04:47:48.249Z,38.40
2022-08-17T04:50:23.776Z,38.80
2022-08-17T04:52:57.583Z,38.80
2022-08-17T04:55:32.666Z,37.70
2022-08-17T04:58:06.784Z,37.60
2022-08-17T05:00:42.239Z,37.40
2022-08-17T05:03:16.086Z,37.40
2022-08-17T05:05:53.613Z,37.70
2022-08-17T05:08:28.006Z,37.80
2022-08-17T05:11:01.712Z,38.00
2022-08-17T05:13:35.725Z,38.20
2022-08-17T05:16:11.829Z,38.20
2022-08-17T05:18:46.231Z,38.30
2022-08-17T05:21:23.319Z,38.30
2022-08-17T05:23:59.796Z,38.50
2022-08-17T05:26:33.167Z,38.30
2022-08-17T05:29:19.135Z,37.70
2022-08-17T05:31:52.992Z,37.60
2022-08-17T05:37:29.509Z,37.90
2022-08-17T05:40:03.644Z,38.20
2022-08-17T05:42:38.169Z,38.30
2022-08-17T05:45:13.243Z,38.20
2022-08-17T05:50:47.038Z,37.00
2022-08-17T05:53:32.018Z,37.70
2022-08-17T05:56:22.700Z,37.70
2022-08-17T05:59:13.226Z,37.90
2022-08-17T06:01:59.695Z,38.30
2022-08-17T06:04:44.084Z,38.60
2022-08-17T06:07:24.959Z,37.60
2022-08-17T06:10:09.576Z,37.30
2022-08-17T06:12:58.065Z,37.90
2022-08-17T06:15:36.120Z,37.80
2022-08-17T06:18:18.927Z,37.90
2022-08-17T06:20:57.502Z,38.00
2022-08-17T06:23:39.251Z,38.10
2022-08-17T06:26:21.871Z,38.00
2022-08-17T06:29:04.391Z,38.10
2022-08-17T06:31:44.494Z,38.30
2022-08-17T06:34:18.956Z,38.20
2022-08-17T06:37:00.321Z,37.80
2022-08-17T06:39:48.761Z,37.50
2022-08-17T06:43:02.751Z,37.20
2022-08-17T06:45:50.723Z,37.50
2022-08-17T06:48:28.699Z,37.70
2022-08-17T06:51:07.130Z,37.90
2022-08-17T06:53:47.312Z,38.10
2022-08-17T06:56:52.987Z,38.10
2022-08-17T06:59:54.955Z,37.90
2022-08-17T07:02:52.317Z,37.90
2022-08-17T07:05:30.144Z,37.90
2022-08-17T07:08:12.877Z,38.10
2022-08-17T07:10:51.686Z,37.80
2022-08-17T07:13:38.951Z,37.40
2022-08-17T07:16:21.787Z,37.30
2022-08-17T07:18:58.179Z,37.40
2022-08-17T07:21:47.790Z,37.50
2022-08-17T07:24:41.511Z,37.50
2022-08-17T07:27:20.088Z,37.50
2022-08-17T07:29:58.663Z,37.50
2022-08-17T07:32:44.936Z,37.40
2022-08-17T07:35:37.690Z,37.20
2022-08-17T07:38:24.896Z,37.30
2022-08-17T07:41:10.116Z,37.30
2022-08-17T07:43:55.451Z,37.70
2022-08-17T07:46:46.801Z,38.00
2022-08-17T07:49:29.531Z,38.00
2022-08-17T07:52:48.114Z,37.70
2022-08-17T07:55:05.093Z,37.90
2022-08-17T07:57:46.686Z,38.20
2022-08-17T08:00:31.392Z,38.30
2022-08-17T08:03:17.275Z,37.80
2022-08-17T08:06:01.549Z,37.80
2022-08-17T08:08:45.461Z,37.80
2022-08-17T08:11:35.827Z,37.90
2022-08-17T08:14:31.185Z,38.00
2022-08-17T08:17:07.235Z,37.90
2022-08-17T08:19:43.853Z,37.70
2022-08-17T08:22:32.395Z,38.00
2022-08-17T08:25:20.107Z,38.00
2022-08-17T08:28:04.532Z,38.10
2022-08-17T08:30:45.474Z,38.00
2022-08-17T08:33:41.026Z,38.00
2022-08-17T08:37:14.574Z,37.70
2022-08-17T08:39:29.957Z,37.60
2022-08-17T08:42:12.284Z,37.30
2022-08-17T08:45:00.177Z,37.30
2022-08-17T08:47:57.868Z,37.40
2022-08-17T08:50:49.175Z,37.50
2022-08-17T08:53:31.915Z,37.00
2022-08-17T08:56:13.550Z,37.10
2022-08-17T08:58:56.574Z,37.10
2022-08-17T09:01:41.786Z,37.40
2022-08-17T09:05:02.603Z,37.50
2022-08-17T09:07:42.724Z,37.50
2022-08-17T09:10:27.781Z,37.00
2022-08-17T09:13:10.806Z,36.90
2022-08-17T09:15:52.598Z,36.70
2022-08-17T09:19:01.660Z,36.80
2022-08-17T09:21:33.934Z,37.20
2022-08-17T09:24:14.200Z,37.30
2022-08-17T09:27:01.821Z,37.40
2022-08-17T09:29:41.985Z,37.20
2022-08-17T09:32:23.680Z,37.00
2022-08-17T09:34:58.652Z,36.70
2022-08-17T09:37:38.199Z,36.60
2022-08-17T09:40:20.300Z,36.60
2022-08-17T09:42:57.727Z,36.60
2022-08-17T09:45:38.927Z,36.60
2022-08-17T09:48:19.348Z,36.60
2022-08-17T09:51:04.605Z,36.40
2022-08-17T09:53:44.555Z,36.50
2022-08-17T09:56:29.971Z,36.50
2022-08-17T09:59:21.708Z,36.50
2022-08-17T10:02:05.740Z,36.30
2022-08-17T10:04:46.561Z,36.40
2022-08-17T10:07:23.772Z,36.40
2022-08-17T10:10:10.824Z,36.40
2022-08-17T10:12:55.780Z,36.40
2022-08-17T10:15:42.685Z,36.40
2022-08-17T10:18:36.870Z,36.30
2022-08-17T10:21:30.351Z,36.20
2022-08-17T10:24:29.640Z,36.30
2022-08-17T10:27:05.859Z,36.40
2022-08-17T10:29:49.114Z,36.40
2022-08-17T10:32:37.580Z,36.40
2022-08-17T10:35:37.492Z,36.20
2022-08-17T10:38:39.847Z,36.10
2022-08-17T10:41:29.007Z,36.20
2022-08-17T10:44:40.457Z,36.20
2022-08-17T10:47:12.164Z,36.20
2022-08-17T10:49:50.770Z,36.20
2022-08-17T10:52:56.322Z,36.00
2022-08-17T10:55:31.759Z,36.00
2022-08-17T10:58:27.155Z,36.30
2022-08-17T11:01:05.058Z,36.10
2022-08-17T11:03:41.079Z,36.00
2022-08-17T11:06:24.962Z,36.00
2022-08-17T11:09:46.071Z,36.00
2022-08-17T11:12:38.696Z,36.30
2022-08-17T11:15:36.809Z,36.30
2022-08-17T11:18:34.552Z,36.40
2022-08-17T11:21:29.054Z,36.10
2022-08-17T11:24:34.996Z,36.10
2022-08-17T11:27:19.791Z,36.20
2022-08-17T11:30:02.226Z,36.10
2022-08-17T11:32:47.330Z,36.10
2022-08-17T11:35:42.177Z,36.20
2022-08-17T11:38:28.433Z,36.30
2022-08-17T11:41:25.172Z,36.30
2022-08-17T11:44:38.881Z,36.20
2022-08-17T11:47:38.065Z,36.10
2022-08-17T11:50:51.164Z,36.10
2022-08-17T11:54:30.667Z,36.00
2022-08-17T11:56:56.032Z,36.00
2022-08-17T12:00:04.422Z,36.00
2022-08-17T12:02:48.615Z,36.00
2022-08-17T12:05:37.668Z,36.00
2022-08-17T12:08:19.684Z,35.80
2022-08-17T12:11:12.774Z,35.70
2022-08-17T12:13:53.835Z,35.60
2022-08-17T12:16:29.669Z,35.60
2022-08-17T12:19:06.455Z,35.80
2022-08-17T12:21:50.326Z,35.80
2022-08-17T12:24:36.695Z,35.70
2022-08-17T12:27:14.615Z,35.60
2022-08-17T12:29:50.125Z,35.60
2022-08-17T12:32:27.857Z,35.50
2022-08-17T12:35:02.645Z,35.40
2022-08-17T12:37:39.438Z,35.40
2022-08-17T12:40:24.911Z,35.30
2022-08-17T12:43:05.401Z,35.30
2022-08-17T12:45:42.214Z,35.20
2022-08-17T12:48:27.266Z,35.30
2022-08-17T12:51:09.156Z,35.30
2022-08-17T12:53:47.139Z,35.30
2022-08-17T12:56:22.601Z,35.20
2022-08-17T12:58:58.107Z,35.20
2022-08-17T13:01:32.031Z,35.20
2022-08-17T13:04:09.162Z,35.20
2022-08-17T13:06:50.485Z,35.20
2022-08-17T13:09:35.700Z,35.20
2022-08-17T13:12:16.435Z,35.20
2022-08-17T13:14:52.310Z,35.20
2022-08-17T13:17:36.038Z,35.20
2022-08-17T13:20:21.779Z,35.20
2022-08-17T13:23:01.284Z,35.20
2022-08-17T13:25:37.447Z,35.10
2022-08-17T13:28:30.710Z,35.00
2022-08-17T13:31:49.184Z,35.00
2022-08-17T13:35:07.801Z,35.00
2022-08-17T13:37:40.590Z,34.90
2022-08-17T13:40:36.121Z,34.80
2022-08-17T13:43:11.770Z,34.80
2022-08-17T13:45:55.737Z,34.80
2022-08-17T13:48:34.171Z,34.80
2022-08-17T13:51:27.756Z,34.80
2022-08-17T13:54:13.631Z,34.80
2022-08-17T13:59:55.500Z,34.80
2022-08-17T14:02:31.777Z,34.80
2022-08-17T14:05:07.844Z,34.90
2022-08-17T14:07:46.529Z,35.00
2022-08-17T14:10:25.413Z,34.90
2022-08-17T14:13:00.961Z,34.80
2022-08-17T14:15:54.965Z,35.00
2022-08-17T14:18:55.549Z,35.10
2022-08-17T14:21:28.625Z,34.90
2022-08-17T14:24:29.456Z,34.80
2022-08-17T14:27:07.719Z,34.80
2022-08-17T14:29:49.698Z,34.80
2022-08-17T14:32:25.456Z,34.90
2022-08-17T14:35:01.204Z,34.80
2022-08-17T14:37:41.289Z,34.80
2022-08-17T14:40:18.276Z,34.80
2022-08-17T14:42:56.317Z,34.80
2022-08-17T14:45:32.656Z,34.80
2022-08-17T14:48:15.061Z,34.80
2022-08-17T14:50:49.528Z,34.70
2022-08-17T14:53:25.057Z,34.80
2022-08-17T14:56:00.752Z,34.80
2022-08-17T14:58:36.848Z,34.80
2022-08-17T15:01:15.978Z,34.70
2022-08-17T15:03:51.812Z,34.70
2022-08-17T15:06:27.506Z,34.60
2022-08-17T15:09:06.170Z,34.60
2022-08-17T15:11:42.564Z,34.50
2022-08-17T15:14:20.074Z,34.50
2022-08-17T15:16:59.196Z,34.60
2022-08-17T15:19:34.737Z,34.50
2022-08-17T15:22:09.307Z,34.30
2022-08-17T15:24:44.239Z,34.30
2022-08-17T15:27:31.526Z,34.30
2022-08-17T15:30:14.754Z,34.40
2022-08-17T15:32:54.916Z,34.30
2022-08-17T15:35:32.771Z,34.30
2022-08-17T15:38:12.047Z,34.20
2022-08-17T15:40:49.406Z,34.10
2022-08-17T15:43:27.829Z,34.00
2022-08-17T15:46:08.920Z,34.00
2022-08-17T15:48:45.701Z,34.00
2022-08-17T15:51:21.973Z,34.20
2022-08-17T15:53:58.941Z,34.30
2022-08-17T15:56:35.754Z,34.30
2022-08-17T15:59:11.768Z,34.30
2022-08-17T16:03:13.819Z,34.30
2022-08-17T16:04:44.112Z,34.10
2022-08-17T16:07:24.373Z,34.00
2022-08-17T16:10:02.256Z,34.00
2022-08-17T16:12:40.500Z,34.00
2022-08-17T16:15:15.644Z,34.00
2022-08-17T16:17:53.386Z,33.90
2022-08-17T16:20:28.471Z,33.90
2022-08-17T16:23:06.211Z,33.90
2022-08-17T16:25:53.899Z,33.90
2022-08-17T16:28:36.039Z,33.90
2022-08-17T16:31:11.389Z,33.90
2022-08-17T16:33:58.436Z,34.00
2022-08-17T16:36:55.332Z,34.00
2022-08-17T16:39:32.768Z,33.90
2022-08-17T16:42:08.349Z,33.90
2022-08-17T16:44:44.031Z,33.90
2022-08-17T16:47:21.032Z,34.00
2022-08-17T16:49:58.364Z,34.00
2022-08-17T16:52:34.026Z,34.10
2022-08-17T16:55:13.366Z,34.10
2022-08-17T16:57:50.249Z,34.20
2022-08-17T17:00:27.065Z,34.00
2022-08-17T17:03:19.654Z,33.90
2022-08-17T17:06:06.642Z,33.80
2022-08-17T17:08:48.704Z,34.00
2022-08-17T17:11:33.257Z,34.00
2022-08-17T17:14:10.876Z,34.00
2022-08-17T17:16:49.645Z,34.10
2022-08-17T17:19:35.258Z,34.00
2022-08-17T17:22:20.255Z,34.00
2022-08-17T17:25:05.525Z,34.00
2022-08-17T17:27:48.765Z,34.00
2022-08-17T17:33:19.229Z,34.00
2022-08-17T17:35:55.825Z,34.10
2022-08-17T17:38:36.368Z,34.10
2022-08-17T17:41:16.763Z,33.90
2022-08-17T17:43:53.999Z,33.80
2022-08-17T17:46:33.262Z,33.80
2022-08-17T17:49:08.119Z,33.70
2022-08-17T17:52:09.202Z,33.60
2022-08-17T17:54:57.709Z,33.50
2022-08-17T17:57:45.417Z,33.40
2022-08-17T18:00:23.496Z,33.40
2022-08-17T18:03:13.714Z,33.30
2022-08-17T18:06:10.392Z,32.90
2022-08-17T18:08:56.489Z,32.70
2022-08-17T18:11:50.777Z,32.80
2022-08-17T18:14:35.773Z,32.90
2022-08-17T18:17:10.586Z,33.00
2022-08-17T18:19:45.067Z,33.10
2022-08-17T18:22:20.992Z,33.10
2022-08-17T18:25:03.835Z,33.10
2022-08-17T18:27:51.015Z,33.10
2022-08-17T18:30:31.372Z,33.00
2022-08-17T18:33:24.963Z,32.90
2022-08-17T18:36:01.411Z,32.90
2022-08-17T18:38:36.820Z,32.80
2022-08-17T18:41:25.230Z,32.80
2022-08-17T18:44:08.045Z,32.80
2022-08-17T18:46:42.295Z,32.70
2022-08-17T18:49:32.848Z,32.70
2022-08-17T18:52:19.839Z,32.70
2022-08-17T18:55:12.328Z,32.60
2022-08-17T18:57:51.084Z,32.60
2022-08-17T19:00:39.789Z,32.50
2022-08-17T19:03:27.702Z,32.40
2022-08-17T19:06:32.320Z,32.50
2022-08-17T19:09:06.529Z,32.40
2022-08-17T19:11:41.056Z,32.30
2022-08-17T19:14:21.036Z,32.50
2022-08-17T19:16:58.732Z,32.60
2022-08-17T19:19:39.526Z,32.60
2022-08-17T19:22:30.672Z,32.70
2022-08-17T19:25:17.207Z,32.70
2022-08-17T19:27:57.769Z,32.80
2022-08-17T19:30:32.062Z,32.80
2022-08-17T19:33:07.859Z,32.80
2022-08-17T19:35:53.188Z,32.80
2022-08-17T19:38:37.719Z,32.70
2022-08-17T19:41:20.152Z,32.80
2022-08-17T19:44:14.214Z,32.80
2022-08-17T19:47:00.877Z,32.70
2022-08-17T19:49:48.046Z,32.50
2022-08-17T19:52:50.825Z,32.60
2022-08-17T19:55:34.388Z,32.50
2022-08-17T19:58:18.000Z,32.50
2022-08-17T20:00:55.941Z,32.40
2022-08-17T20:03:36.407Z,32.30
2022-08-17T20:06:16.702Z,32.30
2022-08-17T20:08:59.126Z,32.30
2022-08-17T20:11:38.371Z,32.30
2022-08-17T20:14:16.729Z,32.30
2022-08-17T20:16:50.292Z,32.30
2022-08-17T20:19:31.854Z,32.20
2022-08-17T20:22:13.844Z,32.20
2022-08-17T20:24:52.270Z,32.20
2022-08-17T20:27:32.057Z,32.20
2022-08-17T20:30:16.693Z,32.20
2022-08-17T20:32:58.625Z,32.20
2022-08-17T20:35:33.710Z,32.20
2022-08-17T20:38:12.176Z,32.20
2022-08-17T20:41:16.659Z,32.10
2022-08-17T20:44:07.806Z,32.00
2022-08-17T20:46:59.395Z,32.20
2022-08-17T20:49:43.911Z,32.20
2022-08-17T20:53:01.451Z,32.10
2022-08-17T20:55:59.496Z,32.10
2022-08-17T20:58:51.115Z,32.10
2022-08-17T21:01:41.165Z,32.20
2022-08-17T21:04:48.623Z,32.20
2022-08-17T21:07:33.144Z,32.20
2022-08-17T21:10:21.097Z,32.20
2022-08-17T21:13:03.075Z,32.20
2022-08-17T21:15:43.047Z,32.30
2022-08-17T21:18:21.381Z,32.30
2022-08-17T21:21:12.985Z,32.40
2022-08-17T21:24:09.518Z,32.30
2022-08-17T21:27:04.314Z,32.30
2022-08-17T21:29:54.383Z,32.30
2022-08-17T21:32:35.877Z,32.30
2022-08-17T21:35:58.758Z,32.30
2022-08-17T21:38:41.287Z,32.30
2022-08-17T21:41:25.275Z,32.30
2022-08-17T21:44:05.020Z,32.30
2022-08-17T21:46:46.579Z,32.40
2022-08-17T21:49:22.057Z,32.30
2022-08-17T21:52:03.639Z,32.20
2022-08-17T21:54:40.040Z,32.20
2022-08-17T21:57:23.800Z,32.20
2022-08-17T22:00:02.323Z,32.20
2022-08-17T22:02:45.732Z,32.10
2022-08-17T22:05:20.334Z,32.00
2022-08-17T22:08:03.658Z,32.00
2022-08-17T22:10:41.164Z,31.90
2022-08-17T22:13:17.508Z,31.90
2022-08-17T22:15:54.431Z,31.90
2022-08-17T22:18:31.381Z,32.00
2022-08-17T22:21:08.701Z,32.00
2022-08-17T22:24:00.193Z,31.90
2022-08-17T22:27:04.343Z,31.60
2022-08-17T22:29:57.377Z,31.60
2022-08-17T22:32:44.364Z,31.60
2022-08-17T22:35:48.999Z,31.70
2022-08-17T22:38:40.667Z,31.70
2022-08-17T22:41:35.672Z,31.90
2022-08-17T22:44:30.787Z,32.00
2022-08-17T22:47:11.496Z,32.10
2022-08-17T22:49:54.525Z,32.20
2022-08-17T22:52:37.210Z,32.10
2022-08-17T22:55:35.602Z,32.10
2022-08-17T22:58:32.327Z,32.10
2022-08-17T23:01:28.307Z,32.20
2022-08-17T23:04:04.425Z,32.20
2022-08-17T23:06:39.596Z,32.40
2022-08-17T23:09:15.305Z,32.60
2022-08-17T23:11:50.959Z,32.90
2022-08-17T23:14:25.620Z,33.10
2022-08-17T23:16:58.678Z,33.40
2022-08-17T23:19:34.204Z,33.60
2022-08-17T23:22:10.732Z,33.90
2022-08-17T23:24:52.532Z,34.00
2022-08-17T23:27:30.728Z,34.00
2022-08-17T23:30:04.378Z,34.10
2022-08-17T23:32:38.460Z,34.20
2022-08-17T23:35:40.635Z,34.40
2022-08-17T23:38:15.883Z,34.50
2022-08-17T23:40:51.718Z,34.50
2022-08-17T23:43:28.278Z,34.50
2022-08-17T23:46:05.127Z,34.30
2022-08-17T23:48:38.835Z,34.20
2022-08-17T23:51:18.079Z,34.30
2022-08-17T23:53:55.812Z,34.40
2022-08-17T23:56:30.758Z,34.60
2022-08-17T23:59:04.386Z,34.50
